Time;durP1;ratioP1;P1;durP2;ratioP2;P2;SDS_P1;SDS_P2;PMS_P1;PMS_P2;Temp;Humidity;BMP_temperature;BMP_pressure;BME280_temperature;BME280_humidity;BME280_pressure;Samples;Min_cycle;Max_cycle;Signal;HPM_P1;HPM_P2
2022/04/06 00:01:48;;;;;;;21.93;19.67;;;;;;;8.66;100.00;99012.16;5091255;28;20325;-82
2022/04/06 00:04:26;;;;;;;21.87;19.80;;;;;;;8.71;100.00;99006.78;5097050;28;20218;-83
2022/04/06 00:06:53;;;;;;;20.60;18.73;;;;;;;8.73;100.00;99020.59;5105282;28;20196;-83
2022/04/06 00:09:21;;;;;;;20.63;18.73;;;;;;;8.69;100.00;99014.63;5106761;28;20271;-83
2022/04/06 00:11:48;;;;;;;21.83;19.67;;;;;;;8.67;100.00;99016.44;5105705;28;20228;-83
2022/04/06 00:14:14;;;;;;;20.63;18.50;;;;;;;8.74;100.00;99017.06;5106359;28;20230;-83
2022/04/06 00:16:44;;;;;;;20.33;18.17;;;;;;;8.79;100.00;99025.59;5105684;28;20226;-83
2022/04/06 00:19:11;;;;;;;21.10;19.30;;;;;;;8.76;100.00;99020.50;5107412;28;20227;-80
2022/04/06 00:21:39;;;;;;;18.83;17.43;;;;;;;8.80;100.00;99031.63;5108133;28;20230;-81
2022/04/06 00:24:06;;;;;;;20.27;18.47;;;;;;;8.77;100.00;99031.75;5107887;28;20351;-81
2022/04/06 00:26:32;;;;;;;21.23;18.93;;;;;;;8.75;100.00;99035.25;5107720;28;20200;-82
2022/04/06 00:29:00;;;;;;;21.83;18.50;;;;;;;8.76;100.00;99030.91;5107554;28;20226;-83
2022/04/06 00:31:27;;;;;;;25.50;20.60;;;;;;;8.70;100.00;99016.34;5106411;28;20218;-81
2022/04/06 00:33:53;;;;;;;22.63;20.23;;;;;;;8.61;100.00;99008.84;5098070;28;20196;-82
2022/04/06 00:36:20;;;;;;;22.63;20.47;;;;;;;8.60;100.00;99001.94;5107293;28;20234;-82
2022/04/06 00:38:47;;;;;;;25.63;20.30;;;;;;;8.56;100.00;98989.94;5107852;28;20580;-82
2022/04/06 00:41:14;;;;;;;23.67;21.20;;;;;;;8.57;100.00;98990.81;5106539;28;20209;-80
2022/04/06 00:43:41;;;;;;;22.30;19.87;;;;;;;8.49;100.00;98996.28;5096046;28;20193;-81
2022/04/06 00:46:07;;;;;;;20.77;17.83;;;;;;;8.46;100.00;99009.38;5087364;28;20201;-81
2022/04/06 00:48:34;;;;;;;16.77;15.37;;;;;;;8.42;100.00;99002.56;5097511;28;20353;-82
2022/04/06 00:51:00;;;;;;;18.37;16.83;;;;;;;8.35;100.00;99005.34;5102378;28;20573;-82
2022/04/06 00:53:27;;;;;;;18.27;16.13;;;;;;;8.41;100.00;99004.31;5107732;28;20228;-82
2022/04/06 00:55:55;;;;;;;19.27;16.40;;;;;;;8.38;100.00;99004.38;5107696;28;20208;-81
2022/04/06 00:58:21;;;;;;;15.87;14.30;;;;;;;8.26;100.00;98992.63;5108253;28;20273;-81
2022/04/06 01:00:48;;;;;;;16.27;14.77;;;;;;;8.30;100.00;98990.78;5107624;28;20230;-82
2022/04/06 01:03:15;;;;;;;16.93;14.63;;;;;;;8.19;100.00;98983.34;5108277;28;20249;-82
2022/04/06 01:05:43;;;;;;;16.07;14.47;;;;;;;8.06;100.00;98969.06;5107685;28;20238;-82
2022/04/06 01:08:11;;;;;;;17.27;15.63;;;;;;;8.01;100.00;98957.94;5107609;28;20228;-81
2022/04/06 01:10:39;;;;;;;16.30;14.60;;;;;;;7.93;100.00;98948.66;5108025;28;20204;-82
2022/04/06 01:13:07;;;;;;;18.50;16.43;;;;;;;7.92;100.00;98941.75;5107678;28;20263;-81
2022/04/06 01:15:33;;;;;;;22.70;19.43;;;;;;;8.00;100.00;98925.09;5107526;28;20201;-82
2022/04/06 01:18:00;;;;;;;25.30;19.43;;;;;;;8.05;100.00;98920.59;5106892;28;20224;-81
2022/04/06 01:20:27;;;;;;;26.33;21.47;;;;;;;8.13;100.00;98922.03;5098656;28;20200;-82
2022/04/06 01:23:03;;;;;;;26.87;21.57;;;;;;;8.22;100.00;98923.44;5107653;28;20208;-81
2022/04/06 01:25:29;;;;;;;30.17;20.73;;;;;;;8.29;100.00;98932.75;5107215;28;20211;-80
2022/04/06 01:27:56;;;;;;;24.57;20.50;;;;;;;8.34;100.00;98949.06;5106901;28;20653;-81
2022/04/06 01:30:22;;;;;;;21.77;18.73;;;;;;;8.38;100.00;98975.78;5106884;28;20204;-82
2022/04/06 01:32:49;;;;;;;24.87;19.17;;;;;;;8.40;100.00;99001.72;5107466;28;20235;-82
2022/04/06 01:35:15;;;;;;;21.90;17.70;;;;;;;8.42;100.00;99037.22;5106771;28;20207;-81
2022/04/06 01:37:42;;;;;;;23.07;17.27;;;;;;;8.44;100.00;99069.22;5106900;28;20204;-81
2022/04/06 01:40:11;;;;;;;24.03;19.07;;;;;;;8.48;100.00;99083.84;5105731;28;20201;-83
2022/04/06 01:42:38;;;;;;;21.23;17.80;;;;;;;8.51;100.00;99112.34;5106592;28;20204;-83
2022/04/06 01:45:09;;;;;;;24.77;17.40;;;;;;;8.57;99.90;99152.06;5105537;28;20224;-82
2022/04/06 01:47:35;;;;;;;20.40;18.23;;;;;;;8.55;99.84;99150.34;5086172;28;20208;-79
2022/04/06 01:52:46;;;;;;;19.10;17.10;;;;;;;8.53;99.65;99159.94;5086394;28;20235;-82
2022/04/06 01:55:17;;;;;;;23.13;18.57;;;;;;;8.54;98.97;99166.00;5083806;28;20201;-80
2022/04/06 01:57:44;;;;;;;22.03;19.37;;;;;;;8.57;98.79;99165.91;5085018;28;20274;-81
2022/04/06 02:00:15;;;;;;;20.80;18.73;;;;;;;8.57;99.16;99165.06;5083337;28;20217;-83
2022/04/06 02:02:43;;;;;;;24.07;20.80;;;;;;;8.55;99.08;99171.16;5085888;28;20593;-82
2022/04/06 02:05:12;;;;;;;23.13;20.80;;;;;;;8.53;98.71;99162.56;5083516;28;20205;-82
2022/04/06 02:07:39;;;;;;;27.10;21.73;;;;;;;8.54;98.28;99171.19;5083060;28;20226;-83
2022/04/06 02:10:10;;;;;;;24.00;21.50;;;;;;;8.55;98.44;99170.31;5083007;28;20232;-82
2022/04/06 02:12:39;;;;;;;30.40;23.03;;;;;;;8.61;98.83;99159.72;5082788;28;20233;-82
2022/04/06 02:15:06;;;;;;;25.73;23.33;;;;;;;8.55;98.35;99167.72;5103091;28;20201;-81
2022/04/06 02:17:33;;;;;;;31.00;24.17;;;;;;;8.59;98.91;99168.47;5082860;28;20215;-81
2022/04/06 02:19:59;;;;;;;32.80;26.57;;;;;;;8.60;98.25;99177.97;5080766;28;20281;-83
2022/04/06 02:22:26;;;;;;;34.60;26.63;;;;;;;8.63;97.94;99181.31;5079216;28;20196;-81
2022/04/06 02:24:52;;;;;;;34.87;27.30;;;;;;;8.69;98.01;99188.94;5079471;28;20263;-81
2022/04/06 02:27:21;;;;;;;41.43;28.17;;;;;;;8.70;97.11;99210.59;5080096;28;20203;-82
2022/04/06 02:29:53;;;;;;;39.80;28.70;;;;;;;8.73;97.04;99211.34;5079592;28;20259;-83
2022/04/06 02:32:21;;;;;;;33.57;27.67;;;;;;;8.77;96.96;99208.66;5079603;28;20209;-82
2022/04/06 02:34:47;;;;;;;43.03;29.83;;;;;;;8.75;96.33;99206.94;5079895;28;20200;-82
2022/04/06 02:37:14;;;;;;;38.07;29.73;;;;;;;8.77;96.41;99217.31;5079928;28;20254;-82
2022/04/06 02:39:40;;;;;;;37.40;30.63;;;;;;;8.72;96.38;99211.38;5087812;28;20223;-82
2022/04/06 02:42:07;;;;;;;34.93;30.83;;;;;;;8.77;96.24;99208.66;5081996;28;20238;-81
2022/04/06 02:44:34;;;;;;;44.70;31.67;;;;;;;8.70;96.30;99203.66;5097206;28;20200;-79
2022/04/06 02:47:01;;;;;;;45.07;31.47;;;;;;;8.73;96.57;99206.16;5098173;28;20200;-81
2022/04/06 02:49:29;;;;;;;45.30;31.83;;;;;;;8.77;96.55;99201.69;5098129;28;20714;-82
2022/04/06 02:51:55;;;;;;;39.60;30.37;;;;;;;8.75;95.53;99212.16;5098330;28;20209;-82
2022/04/06 02:54:22;;;;;;;39.13;31.70;;;;;;;8.73;94.91;99220.91;5098622;28;20275;-81
2022/04/06 02:56:50;;;;;;;39.03;31.90;;;;;;;8.74;95.40;99210.47;5098043;28;20265;-81
2022/04/06 02:59:16;;;;;;;38.60;30.97;;;;;;;8.70;95.42;99206.25;5098597;28;20234;-81
2022/04/06 03:01:43;;;;;;;43.53;30.13;;;;;;;8.72;95.09;99227.00;5098406;28;20301;-81
2022/04/06 03:04:11;;;;;;;41.97;30.13;;;;;;;8.76;94.01;99249.44;5098875;28;20203;-83
2022/04/06 03:06:37;;;;;;;38.83;29.20;;;;;;;8.82;92.58;99275.28;5098462;28;20215;-81
2022/04/06 03:09:07;;;;;;;39.37;29.13;;;;;;;8.82;92.88;99271.81;5092182;28;20285;-82
2022/04/06 03:11:34;;;;;;;44.60;28.93;;;;;;;8.84;93.04;99283.88;5096987;28;20205;-82
2022/04/06 03:14:00;;;;;;;37.67;28.97;;;;;;;8.81;92.44;99289.16;5098024;28;20222;-82
2022/04/06 03:16:28;;;;;;;39.60;28.30;;;;;;;8.80;92.43;99284.88;5098516;28;20236;-83
2022/04/06 03:18:55;;;;;;;42.13;30.03;;;;;;;8.80;93.18;99284.88;5097734;28;20233;-81
2022/04/06 03:21:23;;;;;;;47.03;30.57;;;;;;;8.83;92.93;99278.72;5097757;28;20203;-83
2022/04/06 03:23:50;;;;;;;37.07;28.90;;;;;;;8.81;92.42;99275.31;5096995;28;20200;-83
2022/04/06 03:26:20;;;;;;;41.20;29.67;;;;;;;8.81;92.91;99260.56;5097499;28;20204;-84
2022/04/06 03:28:50;;;;;;;35.47;28.47;;;;;;;8.81;92.64;99273.56;5097193;28;20651;-83
2022/04/06 03:31:24;;;;;;;36.77;28.90;;;;;;;8.85;92.33;99272.56;5097653;28;20580;-84
2022/04/06 03:33:59;;;;;;;41.87;27.77;;;;;;;8.88;91.72;99282.03;5096678;28;20285;-83
2022/04/06 03:36:27;;;;;;;35.87;27.80;;;;;;;8.91;92.21;99284.53;5096637;28;20218;-82
2022/04/06 03:38:57;;;;;;;36.17;28.00;;;;;;;8.89;91.54;99299.34;5085553;28;20262;-82
2022/04/06 03:41:28;;;;;;;36.23;26.33;;;;;;;8.90;91.37;99306.25;5095460;28;20206;-82
2022/04/06 03:44:02;;;;;;;36.43;27.00;;;;;;;8.86;92.08;99296.81;5097313;28;20223;-84
2022/04/06 03:46:31;;;;;;;33.40;27.93;;;;;;;8.85;91.70;99275.16;5097464;28;20219;-84
2022/04/06 03:49:01;;;;;;;43.00;27.17;;;;;;;8.87;91.73;99298.53;5096879;28;20231;-84
2022/04/06 03:51:29;;;;;;;38.23;27.53;;;;;;;8.83;90.66;99297.78;5096839;28;20205;-82
2022/04/06 03:53:56;;;;;;;32.87;27.17;;;;;;;8.78;91.57;99291.88;5097217;28;20231;-83
2022/04/06 03:56:24;;;;;;;36.73;27.97;;;;;;;8.81;91.26;99303.94;5097639;28;20203;-83
2022/04/06 03:58:52;;;;;;;37.40;25.37;;;;;;;8.82;91.18;99316.03;5091462;28;20233;-84
2022/04/06 04:01:24;;;;;;;36.77;25.33;;;;;;;8.86;91.41;99300.31;5093847;28;20672;-82
2022/04/06 04:03:55;;;;;;;37.33;25.30;;;;;;;8.84;91.23;99307.31;5096820;28;20204;-84
2022/04/06 04:06:23;;;;;;;29.87;24.50;;;;;;;8.85;91.58;99284.72;5097603;28;20682;-83
2022/04/06 04:08:51;;;;;;;31.90;24.73;;;;;;;8.79;91.06;99298.78;5097020;28;20252;-81
2022/04/06 04:11:18;;;;;;;27.53;24.57;;;;;;;8.81;90.75;99301.34;5096108;28;20208;-83
2022/04/06 04:13:46;;;;;;;30.30;22.40;;;;;;;8.80;90.46;99315.22;5096697;28;20240;-83
2022/04/06 04:16:18;;;;;;;27.40;22.37;;;;;;;8.82;90.49;99314.31;5097428;28;20642;-82
2022/04/06 04:18:45;;;;;;;30.80;22.63;;;;;;;8.81;90.43;99323.00;5097330;28;20281;-83
2022/04/06 04:23:57;;;;;;;25.23;22.43;;;;;;;8.81;90.72;99304.78;5100758;28;20681;-83
2022/04/06 04:26:24;;;;;;;25.67;21.60;;;;;;;8.80;90.45;99318.72;5102463;28;20235;-81
2022/04/06 04:28:52;;;;;;;24.17;21.57;;;;;;;8.79;90.29;99317.00;5101906;28;20223;-82
2022/04/06 04:31:19;;;;;;;22.40;19.53;;;;;;;8.78;89.69;99349.13;5101345;28;20213;-84
2022/04/06 04:33:46;;;;;;;22.00;19.73;;;;;;;8.85;89.67;99347.19;5100095;28;20224;-81
2022/04/06 04:36:13;;;;;;;20.53;18.63;;;;;;;8.82;88.80;99373.28;5101167;28;20299;-81
2022/04/06 04:38:39;;;;;;;25.17;19.33;;;;;;;8.84;89.07;99376.69;5100886;28;20236;-84
2022/04/06 04:41:07;;;;;;;20.67;18.60;;;;;;;8.78;88.80;99369.06;5102736;28;20201;-83
2022/04/06 04:43:34;;;;;;;22.10;18.87;;;;;;;8.81;89.19;99364.63;5102255;28;20204;-82
2022/04/06 04:46:00;;;;;;;21.90;18.83;;;;;;;8.72;89.41;99354.47;5102352;28;20216;-83
2022/04/06 04:48:31;;;;;;;21.43;17.63;;;;;;;8.72;89.29;99347.53;5101988;28;20232;-78
2022/04/06 04:51:00;;;;;;;19.37;17.23;;;;;;;8.71;89.82;99322.41;5101334;28;20196;-83
2022/04/06 04:53:27;;;;;;;19.13;17.10;;;;;;;8.72;90.37;99321.53;5101634;28;20254;-83
2022/04/06 04:55:54;;;;;;;18.93;16.73;;;;;;;8.78;90.19;99317.03;5100703;28;20211;-84
2022/04/06 04:58:22;;;;;;;17.83;15.93;;;;;;;8.66;89.28;99342.53;5088416;28;20241;-83
2022/04/06 05:00:49;;;;;;;16.73;15.03;;;;;;;8.68;89.61;99342.47;5098963;28;20208;-83
2022/04/06 05:03:15;;;;;;;16.67;15.00;;;;;;;8.71;89.64;99345.81;5099161;28;20212;-81
2022/04/06 05:05:44;;;;;;;17.97;15.43;;;;;;;8.74;89.68;99345.75;5098957;28;20257;-84
2022/04/06 05:08:14;;;;;;;18.73;16.17;;;;;;;8.66;89.06;99362.47;5102145;28;20258;-83
2022/04/06 05:10:41;;;;;;;17.30;15.37;;;;;;;8.75;89.27;99359.59;5098848;28;20261;-81
2022/04/06 05:13:08;;;;;;;21.47;16.20;;;;;;;8.76;89.12;99366.53;5098470;28;20238;-83
2022/04/06 05:15:36;;;;;;;16.17;14.50;;;;;;;8.80;88.66;99368.16;5098439;28;20319;-83
2022/04/06 05:18:03;;;;;;;17.80;15.57;;;;;;;8.77;89.12;99365.63;5099079;28;20323;-84
2022/04/06 05:20:29;;;;;;;15.70;14.20;;;;;;;8.71;88.76;99371.84;5099095;28;20231;-84
2022/04/06 05:22:56;;;;;;;15.60;14.17;;;;;;;8.73;88.68;99377.84;5099153;28;20200;-82
2022/04/06 05:25:23;;;;;;;16.03;13.30;;;;;;;8.69;88.83;99373.63;5099314;28;20220;-83
2022/04/06 05:27:54;;;;;;;15.90;14.40;;;;;;;8.72;89.00;99370.97;5098624;28;20205;-84
2022/04/06 05:30:24;;;;;;;14.23;12.83;;;;;;;8.80;88.56;99372.47;5099115;28;20209;-83
2022/04/06 05:32:54;;;;;;;14.47;13.23;;;;;;;8.77;88.76;99362.16;5099622;28;20196;-83
2022/04/06 05:35:26;;;;;;;14.23;12.77;;;;;;;8.80;88.54;99373.34;5098534;28;20228;-83
2022/04/06 05:37:55;;;;;;;17.90;14.03;;;;;;;8.71;87.93;99387.47;5099281;28;20212;-83
2022/04/06 05:40:22;;;;;;;14.87;13.30;;;;;;;8.71;88.72;99377.03;5099357;28;20216;-82
2022/04/06 05:42:48;;;;;;;15.43;12.83;;;;;;;8.72;88.05;99373.56;5098966;28;20218;-83
2022/04/06 05:45:17;;;;;;;14.37;12.77;;;;;;;8.75;88.17;99383.88;5098457;28;20213;-84
2022/04/06 05:47:44;;;;;;;14.07;12.57;;;;;;;8.79;88.21;99373.38;5098730;28;20218;-83
2022/04/06 05:50:16;;;;;;;13.87;12.47;;;;;;;8.79;87.36;99407.22;5098967;28;20272;-82
2022/04/06 05:52:44;;;;;;;14.00;12.50;;;;;;;8.82;87.87;99392.38;5098480;28;20216;-84
2022/04/06 05:55:11;;;;;;;16.30;13.43;;;;;;;8.82;87.58;99410.59;5097804;28;20225;-83
2022/04/06 05:57:38;;;;;;;14.20;12.70;;;;;;;8.84;87.31;99411.41;5099876;28;20196;-82
2022/04/06 06:00:07;;;;;;;15.43;13.17;;;;;;;8.87;87.51;99405.25;5091224;28;20212;-83
2022/04/06 06:02:34;;;;;;;17.27;13.33;;;;;;;8.81;87.46;99410.63;5086536;28;20197;-82
2022/04/06 06:05:01;;;;;;;13.67;12.33;;;;;;;8.86;87.24;99419.13;5078005;28;20212;-83
2022/04/06 06:07:28;;;;;;;15.37;12.23;;;;;;;8.74;87.04;99425.53;5078280;28;20208;-82
2022/04/06 06:09:57;;;;;;;14.43;12.23;;;;;;;8.86;87.26;99419.13;5077762;28;20232;-82
2022/04/06 06:12:24;;;;;;;16.10;13.70;;;;;;;8.87;87.09;99426.06;5078097;28;20682;-81
2022/04/06 06:14:50;;;;;;;20.83;12.90;;;;;;;8.85;87.23;99423.50;5077160;28;20650;-83
2022/04/06 06:17:17;;;;;;;14.97;13.53;;;;;;;8.78;86.75;99437.59;5077390;28;20210;-81
2022/04/06 06:19:43;;;;;;;17.40;14.27;;;;;;;8.82;86.73;99422.72;5077460;28;20225;-82
2022/04/06 06:22:09;;;;;;;17.10;15.40;;;;;;;8.87;87.07;99426.06;5084872;28;20193;-82
2022/04/06 06:24:37;;;;;;;17.20;15.40;;;;;;;8.92;86.95;99432.00;5086888;28;20251;-83
2022/04/06 06:27:06;;;;;;;16.37;14.63;;;;;;;8.91;86.36;99440.69;5086208;28;20682;-82
2022/04/06 06:29:33;;;;;;;17.43;15.50;;;;;;;8.93;85.97;99444.94;5088012;28;20287;-80
2022/04/06 06:31:59;;;;;;;19.00;14.87;;;;;;;8.89;85.86;99453.72;5087896;28;20200;-82
2022/04/06 06:34:33;;;;;;;17.67;15.87;;;;;;;8.90;86.59;99442.44;5086894;28;20231;-82
2022/04/06 06:37:00;;;;;;;20.77;15.53;;;;;;;8.78;86.79;99434.09;5087462;28;20209;-83
2022/04/06 06:39:26;;;;;;;20.60;17.00;;;;;;;8.82;86.73;99418.38;5086288;28;20225;-83
2022/04/06 06:41:58;;;;;;;17.17;15.77;;;;;;;8.86;86.70;99403.53;5088337;28;20222;-81
2022/04/06 06:44:24;;;;;;;22.43;16.33;;;;;;;8.90;87.29;99411.22;5087335;28;20196;-82
2022/04/06 06:46:51;;;;;;;18.50;16.63;;;;;;;8.78;86.67;99419.38;5086046;28;20201;-82
2022/04/06 06:49:17;;;;;;;17.77;16.13;;;;;;;8.88;86.92;99417.34;5087455;28;20259;-83
2022/04/06 06:51:44;;;;;;;20.07;16.93;;;;;;;8.85;87.04;99420.03;5087464;28;20227;-83
2022/04/06 06:54:10;;;;;;;21.80;18.17;;;;;;;8.88;86.98;99427.75;5085410;28;20267;-82
2022/04/06 06:56:38;;;;;;;19.23;17.27;;;;;;;8.84;86.55;99433.94;5096864;28;20207;-82
2022/04/06 06:59:06;;;;;;;19.20;17.37;;;;;;;8.87;86.54;99428.66;5091293;28;20285;-82
2022/04/06 07:01:32;;;;;;;18.47;16.23;;;;;;;8.91;85.56;99446.72;5096163;28;20202;-82
2022/04/06 07:03:59;;;;;;;16.93;15.23;;;;;;;8.88;84.89;99470.25;5096189;28;20205;-81
2022/04/06 07:06:27;;;;;;;17.93;16.00;;;;;;;8.95;85.07;99463.97;5097402;28;20203;-82
2022/04/06 07:08:54;;;;;;;16.97;15.10;;;;;;;8.97;84.98;99466.53;5096830;28;20768;-82
2022/04/06 07:11:20;;;;;;;18.40;14.77;;;;;;;8.95;85.03;99469.19;5097397;28;20226;-82
2022/04/06 07:13:47;;;;;;;17.07;15.37;;;;;;;8.97;84.56;99473.50;5097145;28;20207;-82
2022/04/06 07:16:15;;;;;;;16.60;14.63;;;;;;;9.03;84.24;99486.34;5096362;28;20248;-83
2022/04/06 07:18:41;;;;;;;14.80;13.30;;;;;;;8.97;83.65;99505.59;5097230;28;20227;-82
2022/04/06 07:21:08;;;;;;;13.80;12.37;;;;;;;8.95;82.87;99513.41;5097670;28;20204;-82
2022/04/06 07:23:34;;;;;;;14.10;12.47;;;;;;;8.97;82.29;99523.81;5098011;28;20238;-83
2022/04/06 07:26:01;;;;;;;12.67;11.37;;;;;;;9.12;82.82;99531.19;5097404;28;20289;-82
2022/04/06 07:28:27;;;;;;;12.70;11.47;;;;;;;9.12;81.56;99559.84;5097384;28;20219;-82
2022/04/06 07:30:53;;;;;;;10.33;9.57;;;;;;;9.18;80.57;99578.78;5098277;28;21378;-83
2022/04/06 07:33:22;;;;;;;10.63;9.63;;;;;;;9.17;80.12;99579.69;5098180;28;20222;-82
2022/04/06 07:35:48;;;;;;;10.37;9.23;;;;;;;9.23;80.33;99593.38;5098420;28;20231;-82
2022/04/06 07:38:18;;;;;;;10.17;9.37;;;;;;;9.33;80.27;99596.59;5098203;28;20224;-83
2022/04/06 07:40:46;;;;;;;10.37;9.50;;;;;;;9.38;79.48;99615.56;5099013;28;20208;-82
2022/04/06 07:43:13;;;;;;;12.10;8.73;;;;;;;9.33;78.24;99641.72;5098445;28;20665;-81
2022/04/06 07:45:40;;;;;;;9.47;8.67;;;;;;;9.50;79.30;99625.63;5098314;28;20217;-82
2022/04/06 07:48:06;;;;;;;10.30;9.30;;;;;;;9.38;77.51;99645.97;5099659;28;20727;-81
2022/04/06 07:50:34;;;;;;;8.87;8.10;;;;;;;9.35;76.97;99675.53;5099175;28;20207;-81
2022/04/06 07:53:00;;;;;;;8.93;8.03;;;;;;;9.45;78.27;99655.31;5099569;28;20253;-80
2022/04/06 07:55:27;;;;;;;8.37;7.37;;;;;;;9.39;77.97;99673.72;5114387;28;20224;-79
2022/04/06 07:57:54;;;;;;;9.17;7.40;;;;;;;9.34;77.31;99666.88;5117089;28;20204;-79
2022/04/06 08:00:21;;;;;;;8.93;8.03;;;;;;;9.42;77.45;99674.50;5116446;28;20205;-81
2022/04/06 08:02:49;;;;;;;8.57;7.77;;;;;;;9.52;77.55;99668.13;5114944;28;20234;-80
2022/04/06 08:05:17;;;;;;;8.60;7.90;;;;;;;9.37;76.71;99697.19;5118882;28;20336;-81
2022/04/06 08:07:50;;;;;;;9.20;8.33;;;;;;;9.34;77.04;99694.69;5099227;28;20201;-80
2022/04/06 08:10:18;;;;;;;9.37;8.57;;;;;;;9.29;77.56;99675.69;5096001;28;20262;-80
2022/04/06 08:12:47;;;;;;;8.97;8.10;;;;;;;9.34;76.70;99679.91;5085001;28;20212;-81
2022/04/06 08:15:16;;;;;;;9.07;7.60;;;;;;;9.30;75.74;99713.88;5084180;28;20231;-81
2022/04/06 08:17:45;;;;;;;8.03;7.37;;;;;;;9.40;76.50;99696.28;5092886;28;20217;-79
2022/04/06 08:20:13;;;;;;;9.87;8.00;;;;;;;9.32;75.71;99738.13;5098641;28;20205;-79
2022/04/06 08:22:41;;;;;;;8.67;7.97;;;;;;;9.36;76.31;99699.84;5098171;28;20201;-80
2022/04/06 08:25:09;;;;;;;8.07;7.37;;;;;;;9.42;74.87;99717.91;5098447;28;20215;-78
2022/04/06 08:27:40;;;;;;;7.93;7.23;;;;;;;9.49;76.16;99699.50;5098133;28;20208;-79
2022/04/06 08:30:11;;;;;;;7.60;7.00;;;;;;;9.31;74.13;99744.22;5105352;28;20201;-80
2022/04/06 08:32:40;;;;;;;8.10;7.37;;;;;;;9.42;75.93;99725.75;5091136;28;20204;-81
2022/04/06 08:35:08;;;;;;;7.57;6.97;;;;;;;9.48;75.68;99723.81;5098921;28;20673;-80
2022/04/06 08:37:35;;;;;;;7.80;7.10;;;;;;;9.40;75.16;99733.59;5099201;28;20219;-82
2022/04/06 08:40:03;;;;;;;9.13;7.27;;;;;;;9.34;74.42;99750.22;5099300;28;20226;-82
2022/04/06 08:42:33;;;;;;;8.60;6.43;;;;;;;9.46;75.31;99738.63;5100180;28;20208;-82
2022/04/06 08:45:01;;;;;;;6.43;5.73;;;;;;;9.45;73.53;99764.72;5099128;28;20208;-81
2022/04/06 08:47:30;;;;;;;5.83;5.27;;;;;;;9.43;72.75;99801.22;5100448;28;20220;-82
2022/04/06 08:49:56;;;;;;;6.80;5.77;;;;;;;9.51;73.28;99777.59;5099996;28;20277;-82
2022/04/06 08:52:24;;;;;;;5.33;4.23;;;;;;;9.50;71.67;99825.38;5099711;28;20296;-82
2022/04/06 08:54:51;;;;;;;4.77;4.37;;;;;;;9.49;71.58;99828.88;5099474;28;20233;-82
2022/04/06 08:57:19;;;;;;;4.20;3.90;;;;;;;9.47;71.11;99839.31;5079573;28;20208;-81
2022/04/06 08:59:49;;;;;;;4.77;4.20;;;;;;;9.56;71.61;99824.38;5082606;28;20242;-81
2022/04/06 09:02:19;;;;;;;4.47;4.03;;;;;;;9.56;71.95;99799.19;5088168;28;20189;-81
2022/04/06 09:04:52;;;;;;;4.67;4.07;;;;;;;9.63;71.32;99795.53;5087968;28;20264;-82
2022/04/06 09:07:21;;;;;;;4.47;4.00;;;;;;;9.63;71.04;99824.19;5088524;28;20200;-82
2022/04/06 09:09:50;;;;;;;5.77;3.90;;;;;;;9.65;69.84;99853.69;5086749;28;20229;-82
2022/04/06 09:12:19;;;;;;;5.13;3.83;;;;;;;9.71;69.01;99868.28;5087282;28;20211;-82
2022/04/06 09:15:03;;;;;;;3.80;3.47;;;;;;;9.71;68.84;99870.88;5087415;28;20245;-80
2022/04/06 09:17:31;;;;;;;4.00;3.53;;;;;;;9.68;70.28;99848.38;5087826;28;20197;-81
2022/04/06 09:19:59;;;;;;;6.23;4.10;;;;;;;9.67;71.26;99838.88;5088915;28;20266;-81
2022/04/06 09:22:25;;;;;;;5.00;3.80;;;;;;;9.62;70.36;99817.25;5090024;28;20622;-81
2022/04/06 09:24:57;;;;;;;4.83;3.67;;;;;;;9.72;71.21;99804.84;5088430;28;20618;-80
2022/04/06 09:27:30;;;;;;;4.37;3.47;;;;;;;9.69;70.74;99791.88;5091227;28;20284;-82
2022/04/06 09:29:57;;;;;;;6.13;3.67;;;;;;;9.63;71.43;99773.81;5090943;28;20228;-81
2022/04/06 09:32:26;;;;;;;5.10;4.17;;;;;;;9.68;72.06;99744.13;5090576;28;20282;-82
2022/04/06 09:34:52;;;;;;;4.47;3.80;;;;;;;9.73;71.81;99728.38;5086678;28;20712;-82
2022/04/06 09:37:22;;;;;;;6.77;3.73;;;;;;;9.78;71.96;99726.50;5089364;28;20193;-81
2022/04/06 09:39:49;;;;;;;5.33;3.40;;;;;;;9.89;71.80;99753.16;5087967;28;20227;-82
2022/04/06 09:42:21;;;;;;;4.57;3.97;;;;;;;9.96;72.71;99727.75;5088999;28;20189;-82
2022/04/06 09:47:42;;;;;;;4.67;3.47;;;;;;;9.99;71.36;99747.66;5088413;28;20238;-82
2022/04/06 09:50:19;;;;;;;5.20;3.50;;;;;;;9.89;70.26;99747.06;5097841;28;20199;-82
2022/04/06 09:52:46;;;;;;;6.03;4.47;;;;;;;9.96;69.51;99768.63;5097367;28;20217;-81
2022/04/06 09:55:14;;;;;;;4.77;4.37;;;;;;;10.14;70.67;99755.06;5097029;28;20213;-82
2022/04/06 09:57:44;;;;;;;5.13;4.63;;;;;;;10.11;70.58;99742.97;5099868;28;20549;-81
2022/04/06 10:00:16;;;;;;;5.63;4.13;;;;;;;10.07;71.47;99712.66;5092187;28;20277;-81
2022/04/06 10:02:45;;;;;;;4.07;3.77;;;;;;;10.02;71.11;99706.72;5093067;28;20288;-81
2022/04/06 10:05:18;;;;;;;5.37;4.20;;;;;;;10.09;71.96;99690.00;5092487;28;20200;-82
2022/04/06 10:07:44;;;;;;;4.63;3.73;;;;;;;10.17;71.40;99699.34;5095669;28;20205;-80
2022/04/06 10:10:12;;;;;;;4.37;4.07;;;;;;;10.24;70.66;99740.00;5092594;28;20197;-81
2022/04/06 10:12:40;;;;;;;4.60;3.43;;;;;;;10.31;70.63;99738.97;5095476;28;20228;-79
2022/04/06 10:15:07;;;;;;;3.37;3.17;;;;;;;10.22;69.55;99736.59;5094391;28;20651;-80
2022/04/06 10:17:35;;;;;;;8.77;4.67;;;;;;;10.26;70.74;99752.09;5094445;28;20200;-78
2022/04/06 10:20:16;;;;;;;3.77;3.23;;;;;;;10.09;70.81;99747.38;5094999;28;20220;-80
2022/04/06 10:22:53;;;;;;;5.90;4.00;;;;;;;10.23;71.64;99713.06;5094391;28;20245;-80
2022/04/06 10:25:29;;;;;;;6.47;3.60;;;;;;;10.00;71.48;99695.47;5097021;28;20197;-80
2022/04/06 10:27:56;;;;;;;4.20;3.17;;;;;;;10.05;71.85;99693.59;5095464;28;20441;-79
2022/04/06 10:30:24;;;;;;;4.07;3.10;;;;;;;9.90;70.85;99709.69;5094167;28;20573;-82
2022/04/06 10:32:52;;;;;;;5.27;3.17;;;;;;;10.01;72.11;99691.97;5080028;28;20295;-81
2022/04/06 10:35:22;;;;;;;3.10;2.90;;;;;;;10.03;71.95;99694.53;5085743;28;20356;-79
2022/04/06 10:37:50;;;;;;;5.63;3.40;;;;;;;9.90;72.23;99707.06;5090622;28;20246;-81
2022/04/06 10:40:17;;;;;;;8.83;3.90;;;;;;;9.84;72.71;99662.94;5075474;28;20219;-80
2022/04/06 10:42:45;;;;;;;5.37;4.10;;;;;;;9.87;72.62;99663.69;5075099;28;20209;-80
2022/04/06 10:45:36;;;;;;;4.20;3.80;;;;;;;9.99;73.96;99644.25;5075194;28;20256;-79
2022/04/06 10:48:19;;;;;;;5.57;4.00;;;;;;;9.95;73.27;99650.44;5075082;28;20316;-81
2022/04/06 10:50:48;;;;;;;4.77;4.30;;;;;;;10.09;72.79;99666.53;5075919;28;20268;-80
2022/04/06 10:53:28;;;;;;;4.13;3.83;;;;;;;10.13;71.59;99677.75;5081253;28;20330;-81
2022/04/06 10:56:01;;;;;;;5.30;3.87;;;;;;;10.17;72.78;99684.56;5084480;28;20255;-81
2022/04/06 10:58:27;;;;;;;4.53;4.07;;;;;;;10.03;72.29;99694.53;5087323;28;20236;-80
2022/04/06 11:01:16;;;;;;;5.33;3.97;;;;;;;10.09;72.78;99670.91;5089930;28;20222;-81
2022/04/06 11:03:56;;;;;;;4.30;3.90;;;;;;;9.88;72.45;99686.25;5096799;28;20213;-81
2022/04/06 11:06:56;;;;;;;7.23;3.70;;;;;;;9.90;72.51;99683.59;5095763;28;20294;-82
2022/04/06 11:12:13;;;;;;;4.53;3.60;;;;;;;9.79;72.63;99673.50;5094820;28;20199;-83
2022/04/06 11:14:40;;;;;;;3.97;3.70;;;;;;;9.53;72.81;99698.50;5096000;28;20861;-83
2022/04/06 11:17:37;;;;;;;4.67;4.27;;;;;;;9.65;73.12;99662.56;5095406;28;20225;-80
2022/04/06 11:20:09;;;;;;;4.90;4.43;;;;;;;9.60;72.60;99667.09;5097026;28;20208;-81
2022/04/06 11:22:37;;;;;;;5.60;4.40;;;;;;;9.62;72.67;99686.13;5096940;28;20233;-81
2022/04/06 11:25:08;;;;;;;5.33;4.83;;;;;;;9.64;73.25;99674.75;5096280;28;20213;-81
2022/04/06 11:27:37;;;;;;;7.27;5.27;;;;;;;9.65;72.72;99675.59;5095980;28;20633;-80
2022/04/06 11:30:05;;;;;;;5.07;4.67;;;;;;;9.79;73.48;99673.50;5095907;28;20264;-81
2022/04/06 11:32:33;;;;;;;4.47;4.07;;;;;;;9.60;73.25;99667.09;5098192;28;20203;-82
2022/04/06 11:35:01;;;;;;;5.03;4.40;;;;;;;9.76;73.79;99646.66;5100163;28;20743;-81
2022/04/06 11:37:28;;;;;;;5.27;4.53;;;;;;;9.70;73.37;99664.16;5100854;28;20214;-80
2022/04/06 11:39:59;;;;;;;4.93;4.60;;;;;;;9.71;73.70;99658.06;5099910;28;20224;-81
2022/04/06 11:42:27;;;;;;;5.60;5.10;;;;;;;9.61;74.80;99630.53;5088538;28;20197;-80
2022/04/06 11:44:54;;;;;;;5.33;4.87;;;;;;;9.67;73.33;99622.56;5087639;28;20724;-80
2022/04/06 11:47:28;;;;;;;5.90;5.50;;;;;;;9.84;72.77;99649.91;5081210;28;20200;-79